createdAt,value
2023-05-09T00:14:56.697Z,98643.34
2023-05-09T00:17:24.089Z,98641.50
2023-05-09T00:19:51.507Z,98644.22
2023-05-09T00:22:18.836Z,98645.09
2023-05-09T00:24:45.587Z,98640.03
2023-05-09T00:27:12.193Z,98642.63
2023-05-09T00:29:38.714Z,98637.22
2023-05-09T00:32:05.619Z,98632.72
2023-05-09T00:34:32.436Z,98633.78
2023-05-09T00:36:59.023Z,98624.38
2023-05-09T00:39:25.710Z,98626.06
2023-05-09T00:41:52.401Z,98619.97
2023-05-09T00:44:18.939Z,98609.66
2023-05-09T00:46:45.535Z,98619.47
2023-05-09T00:49:12.562Z,98614.25
2023-05-09T00:51:40.698Z,98614.25
2023-05-09T00:54:12.131Z,98609.94
2023-05-09T00:56:39.309Z,98598.13
2023-05-09T00:59:06.555Z,98603.41
2023-05-09T01:01:33.081Z,98596.22
2023-05-09T01:03:59.836Z,98595.31
2023-05-09T01:06:39.632Z,98593.56
2023-05-09T01:09:30.676Z,98597.06
2023-05-09T01:12:23.367Z,98590.03
2023-05-09T01:14:58.852Z,98583.16
2023-05-09T01:17:50.208Z,98583.38
2023-05-09T01:20:35.635Z,98577.41
2023-05-09T01:23:21.874Z,98581.81
2023-05-09T01:26:06.381Z,98585.19
2023-05-09T01:29:06.420Z,98575.25
2023-05-09T01:31:38.246Z,98576.69
2023-05-09T01:34:07.164Z,98570.56
2023-05-09T01:36:36.428Z,98576.13
2023-05-09T01:39:04.347Z,98581.31
2023-05-09T01:41:32.088Z,98577.75
2023-05-09T01:44:02.366Z,98577.03
2023-05-09T01:46:32.085Z,98573.53
2023-05-09T01:49:01.160Z,98568.38
2023-05-09T01:51:29.173Z,98565.47
2023-05-09T01:53:57.103Z,98573.34
2023-05-09T01:56:25.641Z,98568.41
2023-05-09T01:58:53.966Z,98570.13
2023-05-09T02:01:21.030Z,98573.78
2023-05-09T02:03:52.727Z,98565.13
2023-05-09T02:06:21.534Z,98565.00
2023-05-09T02:08:49.705Z,98560.94
2023-05-09T02:11:16.165Z,98559.19
2023-05-09T02:13:42.759Z,98557.53
2023-05-09T02:16:10.308Z,98555.72
2023-05-09T02:18:37.321Z,98557.47
2023-05-09T02:21:04.351Z,98567.97
2023-05-09T02:23:31.408Z,98563.94
2023-05-09T02:25:58.212Z,98569.13
2023-05-09T02:28:27.304Z,98564.59
2023-05-09T02:30:57.147Z,98572.41
2023-05-09T02:33:24.424Z,98569.88
2023-05-09T02:35:51.250Z,98577.31
2023-05-09T02:38:19.165Z,98568.81
2023-05-09T02:40:47.646Z,98569.00
2023-05-09T02:43:15.226Z,98566.47
2023-05-09T02:45:42.169Z,98570.72
2023-05-09T02:48:09.341Z,98565.66
2023-05-09T02:50:38.373Z,98574.41
2023-05-09T02:53:05.700Z,98561.69
2023-05-09T02:55:32.185Z,98562.53
2023-05-09T02:58:12.117Z,98555.63
2023-05-09T03:00:39.717Z,98550.69
2023-05-09T03:03:06.272Z,98550.72
2023-05-09T03:05:32.972Z,98546.50
2023-05-09T03:07:59.428Z,98546.78
2023-05-09T03:10:25.991Z,98547.50
2023-05-09T03:12:52.405Z,98548.44
2023-05-09T03:15:19.824Z,98545.97
2023-05-09T03:17:46.793Z,98556.16
2023-05-09T03:20:14.075Z,98546.00
2023-05-09T03:22:40.697Z,98550.41
2023-05-09T03:25:07.690Z,98554.59
2023-05-09T03:27:34.328Z,98547.13
2023-05-09T03:30:00.811Z,98545.34
2023-05-09T03:32:31.052Z,98547.22
2023-05-09T03:34:57.682Z,98551.75
2023-05-09T03:37:28.290Z,98549.44
2023-05-09T03:39:55.005Z,98555.41
2023-05-09T03:42:22.304Z,98553.59
2023-05-09T03:44:48.858Z,98551.06
2023-05-09T03:47:15.504Z,98552.13
2023-05-09T03:49:41.922Z,98552.94
2023-05-09T03:52:08.474Z,98551.28
2023-05-09T03:54:35.295Z,98545.25
2023-05-09T03:57:10.188Z,98540.84
2023-05-09T03:59:36.606Z,98546.94
2023-05-09T04:02:03.447Z,98546.78
2023-05-09T04:04:29.995Z,98555.59
2023-05-09T04:06:56.462Z,98552.66
2023-05-09T04:09:22.921Z,98560.25
2023-05-09T04:11:49.302Z,98548.00
2023-05-09T04:14:15.794Z,98548.63
2023-05-09T04:16:42.279Z,98549.22
2023-05-09T04:19:08.806Z,98551.19
2023-05-09T04:21:35.246Z,98558.47
2023-05-09T04:24:01.695Z,98559.06
2023-05-09T04:26:28.160Z,98558.59
2023-05-09T04:28:54.570Z,98551.81
2023-05-09T04:31:26.576Z,98553.69
2023-05-09T04:33:53.168Z,98547.09
2023-05-09T04:36:19.569Z,98552.72
2023-05-09T04:38:46.472Z,98546.91
2023-05-09T04:41:12.937Z,98544.47
2023-05-09T04:43:39.577Z,98553.38
2023-05-09T04:46:06.093Z,98543.81
2023-05-09T04:48:32.520Z,98550.31
2023-05-09T04:50:58.913Z,98555.47
2023-05-09T04:53:26.017Z,98554.31
2023-05-09T04:55:53.279Z,98551.28
2023-05-09T04:58:20.278Z,98548.44
2023-05-09T05:00:46.749Z,98543.78
2023-05-09T05:03:13.224Z,98551.88
2023-05-09T05:05:41.584Z,98549.84
2023-05-09T05:08:08.081Z,98551.56
2023-05-09T05:10:34.662Z,98555.84
2023-05-09T05:13:01.220Z,98550.06
2023-05-09T05:15:27.692Z,98546.66
2023-05-09T05:17:54.194Z,98550.13
2023-05-09T05:20:21.270Z,98550.66
2023-05-09T05:22:47.748Z,98551.16
2023-05-09T05:25:14.365Z,98553.28
2023-05-09T05:27:40.976Z,98543.97
2023-05-09T05:30:08.419Z,98544.53
2023-05-09T05:32:34.922Z,98552.50
2023-05-09T05:35:02.582Z,98553.09
2023-05-09T05:37:29.104Z,98549.53
2023-05-09T05:39:55.494Z,98552.31
2023-05-09T05:42:22.207Z,98551.66
2023-05-09T05:44:48.615Z,98549.34
2023-05-09T05:47:15.001Z,98539.09
2023-05-09T05:49:41.938Z,98537.06
2023-05-09T05:52:08.358Z,98530.72
2023-05-09T05:54:34.723Z,98529.34
2023-05-09T05:57:01.185Z,98528.97
2023-05-09T05:59:27.766Z,98525.94
2023-05-09T06:01:54.209Z,98527.81
2023-05-09T06:04:21.182Z,98522.03
2023-05-09T06:06:48.342Z,98519.91
2023-05-09T06:09:14.993Z,98525.94
2023-05-09T06:11:44.492Z,98515.16
2023-05-09T06:14:11.011Z,98515.41
2023-05-09T06:16:37.692Z,98515.44
2023-05-09T06:19:04.218Z,98511.81
2023-05-09T06:21:31.126Z,98518.31
2023-05-09T06:24:11.677Z,98504.56
2023-05-09T06:26:43.589Z,98515.09
2023-05-09T06:29:10.765Z,98509.25
2023-05-09T06:31:38.814Z,98519.13
2023-05-09T06:34:06.165Z,98512.13
2023-05-09T06:36:33.443Z,98508.00
2023-05-09T06:39:00.207Z,98501.47
2023-05-09T06:41:26.740Z,98504.75
2023-05-09T06:43:53.300Z,98517.19
2023-05-09T06:46:19.881Z,98505.31
2023-05-09T06:48:46.814Z,98498.50
2023-05-09T06:51:13.427Z,98504.59
2023-05-09T06:53:39.885Z,98502.03
2023-05-09T06:56:06.522Z,98490.63
2023-05-09T06:58:33.021Z,98483.50
2023-05-09T07:00:59.799Z,98483.91
2023-05-09T07:03:26.805Z,98474.56
2023-05-09T07:05:53.386Z,98469.69
2023-05-09T07:08:19.842Z,98473.13
2023-05-09T07:10:46.273Z,98462.34
2023-05-09T07:13:13.518Z,98460.97
2023-05-09T07:15:42.686Z,98462.91
2023-05-09T07:18:09.822Z,98461.38
2023-05-09T07:20:36.553Z,98459.72
2023-05-09T07:23:06.204Z,98454.97
2023-05-09T07:25:32.742Z,98442.34
2023-05-09T07:27:59.355Z,98453.25
2023-05-09T07:30:26.078Z,98454.41
2023-05-09T07:32:52.951Z,98450.25
2023-05-09T07:35:20.373Z,98450.22
2023-05-09T07:37:46.862Z,98454.19
2023-05-09T07:40:14.047Z,98453.94
2023-05-09T07:42:40.792Z,98446.44
2023-05-09T07:45:07.624Z,98443.66
2023-05-09T07:47:34.097Z,98440.63
2023-05-09T07:50:00.695Z,98424.06
2023-05-09T07:52:27.123Z,98428.59
2023-05-09T07:54:54.603Z,98427.03
2023-05-09T07:57:21.829Z,98426.13
2023-05-09T07:59:48.410Z,98428.41
2023-05-09T08:02:14.967Z,98433.88
2023-05-09T08:04:41.910Z,98434.00
2023-05-09T08:07:09.077Z,98422.94
2023-05-09T08:09:35.716Z,98420.25
2023-05-09T08:12:02.244Z,98416.25
2023-05-09T08:14:28.757Z,98412.03
2023-05-09T08:16:55.207Z,98405.50
2023-05-09T08:19:26.394Z,98404.38
2023-05-09T08:21:53.367Z,98396.88
2023-05-09T08:24:20.443Z,98402.19
2023-05-09T08:26:47.059Z,98387.47
2023-05-09T08:29:13.521Z,98379.09
2023-05-09T08:31:40.120Z,98387.66
2023-05-09T08:34:06.638Z,98384.34
2023-05-09T08:36:33.889Z,98380.72
2023-05-09T08:39:00.468Z,98375.28
2023-05-09T08:41:30.165Z,98371.81
2023-05-09T08:43:56.680Z,98358.88
2023-05-09T08:46:43.672Z,98362.72
2023-05-09T08:49:10.727Z,98360.28
2023-05-09T08:51:41.514Z,98351.88
2023-05-09T08:54:08.390Z,98341.13
2023-05-09T08:56:35.283Z,98344.88
2023-05-09T08:59:01.793Z,98340.41
2023-05-09T09:01:29.584Z,98332.75
2023-05-09T09:03:56.776Z,98332.66
2023-05-09T09:06:25.730Z,98323.09
2023-05-09T09:08:55.444Z,98337.16
2023-05-09T09:11:22.689Z,98326.56
2023-05-09T09:13:52.949Z,98326.97
2023-05-09T09:16:21.463Z,98330.75
2023-05-09T09:18:51.665Z,98324.56
2023-05-09T09:21:19.680Z,98323.75
2023-05-09T09:23:47.641Z,98319.13
2023-05-09T09:26:14.274Z,98313.66
2023-05-09T09:28:42.055Z,98310.88
2023-05-09T09:31:25.998Z,98314.94
2023-05-09T09:33:52.632Z,98310.44
2023-05-09T09:36:29.832Z,98294.03
2023-05-09T09:38:59.049Z,98293.28
2023-05-09T09:41:36.818Z,98295.50
2023-05-09T09:44:17.252Z,98285.84
2023-05-09T09:46:55.192Z,98291.09
2023-05-09T09:49:23.954Z,98281.31
2023-05-09T09:51:55.930Z,98280.84
2023-05-09T09:54:23.218Z,98266.66
2023-05-09T09:56:57.707Z,98257.34
2023-05-09T09:59:26.590Z,98255.06
2023-05-09T10:01:57.626Z,98249.66
2023-05-09T10:04:25.629Z,98249.22
2023-05-09T10:06:56.212Z,98246.28
2023-05-09T10:09:29.528Z,98252.53
2023-05-09T10:11:57.137Z,98238.59
2023-05-09T10:14:25.412Z,98253.34
2023-05-09T10:16:56.771Z,98238.19
2023-05-09T10:19:26.365Z,98232.47
2023-05-09T10:22:29.321Z,98229.97
2023-05-09T10:28:18.712Z,98225.97
2023-05-09T10:31:17.330Z,98212.34
2023-05-09T10:33:48.197Z,98206.47
2023-05-09T10:36:50.650Z,98209.28
2023-05-09T10:39:33.531Z,98187.22
2023-05-09T10:42:00.787Z,98176.97
2023-05-09T10:47:35.819Z,98165.13
2023-05-09T10:50:05.418Z,98181.22
2023-05-09T10:52:33.644Z,98174.16
2023-05-09T10:55:13.365Z,98158.00
2023-05-09T10:57:39.922Z,98165.72
2023-05-09T11:00:07.515Z,98160.41
2023-05-09T11:02:39.273Z,98154.44
2023-05-09T11:05:17.431Z,98129.25
2023-05-09T11:08:33.531Z,98127.59
2023-05-09T11:11:07.391Z,98123.00
2023-05-09T11:13:53.706Z,98118.88
2023-05-09T11:16:20.265Z,98113.78
2023-05-09T11:18:52.488Z,98118.78
2023-05-09T11:21:20.500Z,98115.34
2023-05-09T11:24:14.020Z,98112.13
2023-05-09T11:26:48.177Z,98091.41
2023-05-09T11:29:50.512Z,98089.78
2023-05-09T11:35:23.267Z,98079.47
2023-05-09T11:38:00.375Z,98080.69
2023-05-09T11:40:28.086Z,98092.03
2023-05-09T11:42:58.332Z,98085.28
2023-05-09T11:45:39.564Z,98069.28
2023-05-09T11:48:09.449Z,98066.31
2023-05-09T11:50:48.191Z,98079.59
2023-05-09T11:53:29.304Z,98064.09
2023-05-09T11:56:03.072Z,98067.19
2023-05-09T11:58:29.669Z,98052.28
2023-05-09T12:00:57.493Z,98048.59
2023-05-09T12:03:41.073Z,98043.03
2023-05-09T12:06:25.199Z,98043.13
2023-05-09T12:09:01.042Z,98030.25
2023-05-09T12:11:32.220Z,98022.91
2023-05-09T12:13:58.751Z,98029.09
2023-05-09T12:16:25.412Z,98024.94
2023-05-09T12:18:54.268Z,98020.03
2023-05-09T12:21:21.738Z,98013.47
2023-05-09T12:23:50.967Z,98016.47
2023-05-09T12:26:18.933Z,98004.28
2023-05-09T12:28:45.671Z,98005.97
2023-05-09T12:31:12.978Z,97998.09
2023-05-09T12:33:39.824Z,97986.31
2023-05-09T12:36:11.636Z,97983.19
2023-05-09T12:38:38.862Z,97976.44
2023-05-09T12:41:18.898Z,97972.72
2023-05-09T12:43:56.530Z,97973.56
2023-05-09T12:46:23.162Z,97970.69
2023-05-09T12:48:49.864Z,97966.03
2023-05-09T12:51:20.750Z,97961.53
2023-05-09T12:53:47.780Z,97956.16
2023-05-09T12:56:16.439Z,97943.75
2023-05-09T12:58:53.888Z,97945.91
2023-05-09T13:01:22.379Z,97941.84
2023-05-09T13:04:07.609Z,97934.34
2023-05-09T13:06:35.675Z,97930.03
2023-05-09T13:09:06.106Z,97928.72
2023-05-09T13:11:32.711Z,97926.91
2023-05-09T13:13:59.275Z,97932.50
2023-05-09T13:16:25.755Z,97916.78
2023-05-09T13:18:52.183Z,97915.13
2023-05-09T13:21:20.060Z,97905.72
2023-05-09T13:23:46.488Z,97905.75
2023-05-09T13:26:12.946Z,97904.00
2023-05-09T13:28:39.387Z,97899.81
2023-05-09T13:31:06.890Z,97894.13
2023-05-09T13:33:33.546Z,97900.72
2023-05-09T13:36:00.069Z,97886.25
2023-05-09T13:38:26.985Z,97889.06
2023-05-09T13:40:53.443Z,97881.06
2023-05-09T13:43:19.884Z,97882.19
2023-05-09T13:45:46.389Z,97877.94
2023-05-09T13:48:12.981Z,97875.75
2023-05-09T13:50:39.494Z,97867.00
2023-05-09T13:53:05.931Z,97873.97
2023-05-09T13:55:32.681Z,97866.53
2023-05-09T13:57:59.129Z,97870.53
2023-05-09T14:00:26.548Z,97866.13
2023-05-09T14:02:53.049Z,97861.31
2023-05-09T14:05:19.754Z,97853.88
2023-05-09T14:07:46.243Z,97849.69
2023-05-09T14:10:12.925Z,97842.00
2023-05-09T14:12:42.439Z,97852.66
2023-05-09T14:15:11.175Z,97857.00
2023-05-09T14:17:37.903Z,97833.06
2023-05-09T14:20:04.707Z,97829.47
2023-05-09T14:22:31.153Z,97835.38
2023-05-09T14:24:57.712Z,97829.03
2023-05-09T14:27:25.131Z,97829.94
2023-05-09T14:29:51.855Z,97818.53
2023-05-09T14:32:18.313Z,97812.50
2023-05-09T14:34:45.555Z,97817.97
2023-05-09T14:37:14.842Z,97802.75
2023-05-09T14:39:45.126Z,97798.81
2023-05-09T14:42:14.105Z,97796.19
2023-05-09T14:44:41.777Z,97784.63
2023-05-09T14:47:09.565Z,97790.91
2023-05-09T14:49:37.277Z,97780.56
2023-05-09T14:52:03.842Z,97773.09
2023-05-09T14:54:30.394Z,97768.38
2023-05-09T14:56:57.496Z,97762.53
2023-05-09T14:59:24.117Z,97764.06
2023-05-09T15:01:51.725Z,97756.78
2023-05-09T15:04:18.288Z,97750.72
2023-05-09T15:06:45.858Z,97749.50
2023-05-09T15:09:13.004Z,97745.97
2023-05-09T15:11:47.825Z,97742.94
2023-05-09T15:14:16.358Z,97740.66
2023-05-09T15:16:42.985Z,97731.84
2023-05-09T15:19:09.486Z,97729.53
2023-05-09T15:21:35.949Z,97722.16
2023-05-09T15:24:03.267Z,97722.75
2023-05-09T15:26:30.158Z,97719.91
2023-05-09T15:28:56.623Z,97712.38
2023-05-09T15:31:24.062Z,97709.44
2023-05-09T15:33:50.889Z,97711.91
2023-05-09T15:36:17.389Z,97709.94
2023-05-09T15:38:48.320Z,97704.59
2023-05-09T15:41:15.388Z,97707.66
2023-05-09T15:43:42.101Z,97703.63
2023-05-09T15:46:08.562Z,97703.31
2023-05-09T15:48:35.043Z,97693.44
2023-05-09T15:51:02.690Z,97693.41
2023-05-09T15:53:29.389Z,97694.00
2023-05-09T15:55:56.900Z,97691.34
2023-05-09T15:58:23.523Z,97693.13
2023-05-09T16:00:50.162Z,97691.13
2023-05-09T16:03:16.856Z,97690.56
2023-05-09T16:05:43.802Z,97681.72
2023-05-09T16:08:10.376Z,97673.75
2023-05-09T16:10:36.780Z,97676.44
2023-05-09T16:13:03.554Z,97671.00
2023-05-09T16:15:30.002Z,97665.78
2023-05-09T16:17:56.429Z,97658.59
2023-05-09T16:20:23.047Z,97653.41
2023-05-09T16:22:49.518Z,97656.66
2023-05-09T16:25:16.780Z,97655.06
2023-05-09T16:27:43.509Z,97649.38
2023-05-09T16:30:10.478Z,97656.09
2023-05-09T16:32:36.967Z,97648.16
2023-05-09T16:35:04.147Z,97644.34
2023-05-09T16:37:30.900Z,97644.94
2023-05-09T16:39:59.288Z,97637.03
2023-05-09T16:42:25.945Z,97630.31
2023-05-09T16:44:52.577Z,97638.03
2023-05-09T16:47:19.046Z,97635.09
2023-05-09T16:49:45.947Z,97641.16
2023-05-09T16:52:12.439Z,97626.81
2023-05-09T16:54:38.880Z,97624.75
2023-05-09T16:57:05.628Z,97621.91
2023-05-09T16:59:33.151Z,97614.69
2023-05-09T17:01:59.623Z,97611.00
2023-05-09T17:04:26.568Z,97618.63
2023-05-09T17:06:53.285Z,97609.28
2023-05-09T17:09:19.829Z,97607.63
2023-05-09T17:11:46.393Z,97610.34
2023-05-09T17:14:12.777Z,97605.03
2023-05-09T17:16:39.246Z,97598.50
2023-05-09T17:19:05.729Z,97593.97
2023-05-09T17:21:32.301Z,97585.03
2023-05-09T17:23:58.734Z,97586.09
2023-05-09T17:26:25.955Z,97585.03
2023-05-09T17:28:52.480Z,97581.69
2023-05-09T17:31:19.035Z,97581.94
2023-05-09T17:33:45.472Z,97579.31
2023-05-09T17:36:11.863Z,97576.38
2023-05-09T17:38:38.370Z,97573.41
2023-05-09T17:41:04.885Z,97564.69
2023-05-09T17:43:31.921Z,97572.78
2023-05-09T17:45:58.950Z,97570.22
2023-05-09T17:48:25.637Z,97568.41
2023-05-09T17:50:52.658Z,97566.06
2023-05-09T17:53:19.121Z,97562.81
2023-05-09T17:55:45.613Z,97560.44
2023-05-09T17:58:12.125Z,97562.47
2023-05-09T18:00:38.628Z,97556.88
2023-05-09T18:03:05.323Z,97549.75
2023-05-09T18:05:31.949Z,97547.16
2023-05-09T18:08:00.810Z,97550.25
2023-05-09T18:10:28.686Z,97546.19
2023-05-09T18:12:55.603Z,97545.50
2023-05-09T18:15:24.623Z,97548.22
2023-05-09T18:17:51.376Z,97548.06
2023-05-09T18:20:21.230Z,97552.47
2023-05-09T18:22:47.734Z,97551.41
2023-05-09T18:25:14.387Z,97553.53
2023-05-09T18:27:40.985Z,97557.88
2023-05-09T18:30:08.220Z,97558.31
2023-05-09T18:32:53.856Z,97552.88
2023-05-09T19:09:22.122Z,97543.19
2023-05-09T20:12:26.360Z,97577.47
2023-05-09T20:15:24.852Z,97573.41
2023-05-09T20:21:03.423Z,97572.72
2023-05-09T20:23:36.817Z,97581.38
2023-05-09T20:29:53.186Z,97583.69
2023-05-09T20:32:20.096Z,97586.75
2023-05-09T20:34:53.279Z,97584.44
2023-05-09T20:37:21.172Z,97581.25
2023-05-09T20:39:47.772Z,97578.03
2023-05-09T21:13:49.052Z,97545.75
2023-05-09T21:26:20.036Z,97549.19
2023-05-09T21:28:48.088Z,97552.81
2023-05-09T21:31:17.949Z,97556.25
2023-05-09T21:37:38.500Z,97585.53
2023-05-09T21:40:18.813Z,97604.09
2023-05-09T21:50:58.567Z,97595.09
2023-05-09T21:53:33.506Z,97597.59
2023-05-09T22:02:28.215Z,97607.38
